This is the latest recevied weather packets stored in our database for station/object DC1NF-6. If no packets are shown the sender has not sent any weather packets the latest 1 day(s).
| Time | Temp. | Humidity | Pressure | Rain* | Wind** | Luminosity | Snow |
|---|---|---|---|---|---|---|---|
| 1778003748 | 12.78° C | 95% | 1006.8 hPa | 12.19 mm | 0 m/s | - | - |
| 1778003144 | 12.78° C | 96% | 1006.9 hPa | 12.95 mm | 0 m/s | - | - |
| 1778002541 | 13.33° C | 95% | 1007 hPa | 11.94 mm | 0 m/s | - | - |
| 1778001937 | 13.33° C | 95% | 1007.3 hPa | 9.91 mm | 0 m/s | - | - |
| 1778001333 | 13.89° C | 94% | 1007.1 hPa | 5.59 mm | 0.45 m/s, 141° | - | - |
| 1778000730 | 14.44° C | 92% | 1006.8 hPa | 3.81 mm | 0.45 m/s, 184° | - | - |
| 1778000126 | 16.11° C | 84% | 1006.4 hPa | 1.02 mm | 0 m/s | - | - |
| 1777994753 | 20° C | 60% | 1005.9 hPa | 0 mm | 0 m/s | - | - |
| 1777992941 | 20.56° C | 56% | 1005.9 hPa | 0 mm | 0 m/s | - | - |
| 1777992338 | 20.56° C | 55% | 1005.9 hPa | 0 mm | 0.45 m/s, 160° | - | - |
| 1777991734 | 21.11° C | 56% | 1005.9 hPa | 0 mm | 0 m/s | - | - |
| 1777991130 | 21.11° C | 57% | 1006.1 hPa | 0 mm | 0 m/s | - | - |
| 1777990527 | 21.11° C | 57% | 1006.1 hPa | 0 mm | 0.45 m/s, 158° | - | - |
| 1777989923 | 22.22° C | 54% | 1006 hPa | 0 mm | 0.45 m/s, 134° | - | - |
| 1777989320 | 22.78° C | 51% | 1006.4 hPa | 0 mm | 0.45 m/s, 147° | - | - |
| 1777988716 | 25° C | 46% | 1006.3 hPa | 0 mm | 0.45 m/s, 143° | - | - |
| 1777985758 | 25.56° C | 41% | 1006.5 hPa | 0 mm | 0 m/s | - | - |
| 1777985154 | 26.67° C | 40% | 1006.6 hPa | 0 mm | 0 m/s | - | - |
| 1777984550 | 27.22° C | 39% | 1006.6 hPa | 0 mm | 0 m/s | - | - |
| 1777983946 | 26.67° C | 40% | 1006.7 hPa | 0 mm | 0 m/s | - | - |
| 1777983342 | 26.67° C | 39% | 1006.7 hPa | 0 mm | 0 m/s | - | - |
| 1777982135 | 27.22° C | 39% | 1006.9 hPa | 0 mm | 0 m/s | - | - |
| 1777980927 | 26.11° C | 41% | 1007.2 hPa | 0 mm | 0 m/s | - | - |
| 1777980323 | 26.11° C | 40% | 1007.2 hPa | 0 mm | 0 m/s | - | - |
| 1777979720 | 26.11° C | 42% | 1007.3 hPa | 0 mm | 0 m/s | - | - |
* Rain latest hour (hover to see other rain measurements)
** Current wind speed in m/s (hover to see current wind gust speed)